ENT5103 EPKT-GVAC
Flight info
| Callsign | ENT5103 |
|---|---|
| Flight time | N/A |
| Altitude | 34000 |
| Route | ADADO M992 UTEVO DCT RUDAP DCT MAMOR DCT UMTEX/N0450F350 DCT ULMES DCT NINTU DCT MEBAK DCT REPSI DCT LERGA DCT SOVET DCT TIVLI N869 ZAR Z245 CJN N10 HIJ M30 OXACA N858 OSLEP/N0449F370 N747 MINTA DCT IXOLI DCT BEXAL DCT SAMAR N873 ODEGI/N0454F380 N873 IPERA UW43 NEMDO |
| Aircraft | B38M/M-SDE1FGHILORVWXY/HB1 |
Departure
| Time | N/A |
|---|---|
| Airport | Katowice Wojciech Korfanty International Airport (EPKT) |
Arrival
| Time | 2026-04-26 09:09 |
|---|---|
| Airport | Amílcar Cabral International Airport (GVAC) |
| Time | Latitude | Longitude | Altitude | Speed | Heading |
|---|---|---|---|---|---|
| 2026-04-26 07:29 | 25.14903 | -17.52223 | 35553 ft | 421 kts | 217° |
| 2026-04-26 07:29 | 25.12422 | -17.53946 | 35801 ft | 421 kts | 217° |
| 2026-04-26 07:29 | 25.09936 | -17.55670 | 36042 ft | 421 kts | 217° |
| 2026-04-26 07:30 | 25.07454 | -17.57392 | 36272 ft | 421 kts | 217° |
| 2026-04-26 07:30 | 25.05002 | -17.59093 | 36502 ft | 421 kts | 217° |
| 2026-04-26 07:30 | 25.02519 | -17.60813 | 36733 ft | 421 kts | 217° |
| 2026-04-26 07:30 | 25.00037 | -17.62530 | 36955 ft | 421 kts | 217° |
| 2026-04-26 07:31 | 24.97553 | -17.64247 | 37175 ft | 421 kts | 217° |
| 2026-04-26 07:31 | 24.95074 | -17.65959 | 37402 ft | 420 kts | 217° |
| 2026-04-26 07:31 | 24.92597 | -17.67670 | 37628 ft | 419 kts | 217° |
| 2026-04-26 07:31 | 24.90132 | -17.69372 | 37848 ft | 419 kts | 217° |
| 2026-04-26 07:32 | 24.87656 | -17.71080 | 38024 ft | 418 kts | 217° |
| 2026-04-26 07:32 | 24.82752 | -17.74461 | 38033 ft | 417 kts | 217° |
| 2026-04-26 07:33 | 24.77833 | -17.77850 | 38044 ft | 417 kts | 217° |
| 2026-04-26 07:33 | 24.73740 | -17.80667 | 38043 ft | 417 kts | 217° |
| 2026-04-26 07:34 | 24.68007 | -17.84609 | 38043 ft | 417 kts | 217° |
| 2026-04-26 07:34 | 24.63916 | -17.87419 | 38043 ft | 417 kts | 217° |
| 2026-04-26 07:35 | 24.58986 | -17.90803 | 38040 ft | 416 kts | 217° |
| 2026-04-26 07:35 | 24.54062 | -17.94179 | 38044 ft | 416 kts | 217° |
| 2026-04-26 07:36 | 24.49176 | -17.97527 | 38047 ft | 416 kts | 217° |
| 2026-04-26 07:36 | 24.44259 | -18.00891 | 38037 ft | 416 kts | 217° |
| 2026-04-26 07:37 | 24.39332 | -18.04261 | 38039 ft | 416 kts | 217° |
| 2026-04-26 07:37 | 24.34442 | -18.07601 | 38039 ft | 415 kts | 217° |
| 2026-04-26 07:38 | 24.29530 | -18.10954 | 38037 ft | 416 kts | 217° |
| 2026-04-26 07:38 | 24.24612 | -18.14308 | 38043 ft | 415 kts | 217° |
| 2026-04-26 07:39 | 24.19698 | -18.17655 | 38035 ft | 415 kts | 217° |
| 2026-04-26 07:39 | 24.14823 | -18.20973 | 38031 ft | 415 kts | 217° |
| 2026-04-26 07:40 | 24.09911 | -18.24314 | 38051 ft | 415 kts | 217° |
| 2026-04-26 07:40 | 24.04999 | -18.27651 | 38037 ft | 415 kts | 217° |
| 2026-04-26 07:41 | 24.00087 | -18.30985 | 38038 ft | 415 kts | 217° |
| 2026-04-26 07:41 | 23.95174 | -18.34317 | 38042 ft | 415 kts | 218° |
| 2026-04-26 07:42 | 23.90270 | -18.37639 | 38043 ft | 415 kts | 218° |
| 2026-04-26 07:42 | 23.85404 | -18.40934 | 38043 ft | 414 kts | 218° |
| 2026-04-26 07:43 | 23.80482 | -18.44262 | 38043 ft | 414 kts | 218° |
| 2026-04-26 07:43 | 23.75609 | -18.47556 | 38044 ft | 414 kts | 218° |
| 2026-04-26 07:44 | 23.70697 | -18.50872 | 38043 ft | 414 kts | 218° |
| 2026-04-26 07:44 | 23.65779 | -18.54189 | 38044 ft | 414 kts | 218° |
| 2026-04-26 07:45 | 23.60892 | -18.57482 | 38039 ft | 414 kts | 218° |
| 2026-04-26 07:45 | 23.55987 | -18.60785 | 38040 ft | 414 kts | 218° |
| 2026-04-26 07:46 | 23.51085 | -18.64083 | 38039 ft | 414 kts | 218° |
| 2026-04-26 07:46 | 23.46175 | -18.67383 | 38035 ft | 414 kts | 218° |
| 2026-04-26 07:47 | 23.41290 | -18.70663 | 38044 ft | 414 kts | 218° |
| 2026-04-26 07:47 | 23.36368 | -18.73966 | 38036 ft | 414 kts | 218° |
| 2026-04-26 07:48 | 23.31460 | -18.77256 | 38048 ft | 414 kts | 218° |
| 2026-04-26 07:48 | 23.26585 | -18.80521 | 38043 ft | 414 kts | 219° |
| 2026-04-26 07:49 | 23.21678 | -18.83804 | 38042 ft | 413 kts | 219° |
| 2026-04-26 07:49 | 23.16780 | -18.87079 | 38037 ft | 413 kts | 219° |
| 2026-04-26 07:50 | 23.09422 | -18.91993 | 38043 ft | 413 kts | 219° |
| 2026-04-26 07:50 | 23.04522 | -18.95262 | 38037 ft | 413 kts | 219° |
| 2026-04-26 07:51 | 22.99626 | -18.98526 | 38038 ft | 413 kts | 219° |
| 2026-04-26 07:51 | 22.94732 | -19.01784 | 38038 ft | 413 kts | 219° |
| 2026-04-26 07:52 | 22.89867 | -19.05022 | 38037 ft | 413 kts | 219° |
| 2026-04-26 07:52 | 22.84963 | -19.08282 | 38040 ft | 412 kts | 219° |
| 2026-04-26 07:53 | 22.80063 | -19.11537 | 38040 ft | 412 kts | 219° |
| 2026-04-26 07:53 | 22.75171 | -19.14784 | 38039 ft | 412 kts | 219° |
| 2026-04-26 07:54 | 22.70269 | -19.18035 | 38037 ft | 412 kts | 219° |
| 2026-04-26 07:54 | 22.65370 | -19.21280 | 38038 ft | 412 kts | 219° |
| 2026-04-26 07:55 | 22.60507 | -19.24500 | 38036 ft | 412 kts | 219° |
| 2026-04-26 07:55 | 22.55600 | -19.27746 | 38038 ft | 412 kts | 219° |
| 2026-04-26 07:56 | 22.50701 | -19.30984 | 38037 ft | 413 kts | 220° |
| 2026-04-26 07:56 | 22.45795 | -19.34224 | 38039 ft | 413 kts | 220° |
| 2026-04-26 07:57 | 22.40894 | -19.37458 | 38039 ft | 413 kts | 220° |
| 2026-04-26 07:57 | 22.35985 | -19.40694 | 38038 ft | 413 kts | 220° |
| 2026-04-26 07:58 | 22.31109 | -19.43906 | 38038 ft | 413 kts | 220° |
| 2026-04-26 07:58 | 22.26186 | -19.47147 | 38034 ft | 413 kts | 220° |
| 2026-04-26 07:59 | 22.21275 | -19.50377 | 38029 ft | 413 kts | 220° |
| 2026-04-26 07:59 | 22.16390 | -19.53587 | 38042 ft | 413 kts | 220° |
| 2026-04-26 08:00 | 22.11457 | -19.56827 | 38033 ft | 414 kts | 220° |
| 2026-04-26 08:00 | 22.06536 | -19.60052 | 38028 ft | 414 kts | 220° |
| 2026-04-26 08:01 | 22.01631 | -19.63266 | 38034 ft | 414 kts | 220° |
| 2026-04-26 08:01 | 21.96698 | -19.66496 | 38039 ft | 414 kts | 220° |
| 2026-04-26 08:02 | 21.91769 | -19.69721 | 38032 ft | 414 kts | 220° |
| 2026-04-26 08:02 | 21.86869 | -19.72924 | 38032 ft | 415 kts | 220° |
| 2026-04-26 08:03 | 21.81924 | -19.76153 | 38033 ft | 415 kts | 220° |
| 2026-04-26 08:03 | 21.76992 | -19.79373 | 38032 ft | 415 kts | 220° |
| 2026-04-26 08:04 | 21.72051 | -19.82595 | 38035 ft | 415 kts | 220° |
| 2026-04-26 08:04 | 21.67134 | -19.85799 | 38031 ft | 415 kts | 220° |
| 2026-04-26 08:05 | 21.62184 | -19.89022 | 38029 ft | 415 kts | 220° |
| 2026-04-26 08:05 | 21.57239 | -19.92239 | 38028 ft | 415 kts | 220° |
| 2026-04-26 08:06 | 21.52321 | -19.95435 | 38029 ft | 415 kts | 221° |
| 2026-04-26 08:06 | 21.47361 | -19.98657 | 38030 ft | 416 kts | 221° |
| 2026-04-26 08:07 | 21.42442 | -20.01849 | 38031 ft | 416 kts | 221° |
| 2026-04-26 08:07 | 21.37485 | -20.05063 | 38047 ft | 416 kts | 221° |
| 2026-04-26 08:08 | 21.32528 | -20.08275 | 38034 ft | 416 kts | 221° |
| 2026-04-26 08:08 | 21.27561 | -20.11492 | 38029 ft | 416 kts | 221° |
| 2026-04-26 08:09 | 21.22629 | -20.14681 | 38032 ft | 416 kts | 221° |
| 2026-04-26 08:09 | 21.17672 | -20.17886 | 38032 ft | 416 kts | 221° |
| 2026-04-26 08:10 | 21.12693 | -20.21102 | 38027 ft | 416 kts | 221° |
| 2026-04-26 08:10 | 21.07756 | -20.24288 | 38028 ft | 417 kts | 221° |
| 2026-04-26 08:11 | 21.02784 | -20.27494 | 38029 ft | 417 kts | 221° |
| 2026-04-26 08:11 | 20.97814 | -20.30697 | 38032 ft | 417 kts | 221° |
| 2026-04-26 08:12 | 20.92838 | -20.33900 | 38035 ft | 417 kts | 221° |
| 2026-04-26 08:12 | 20.87865 | -20.37100 | 38032 ft | 417 kts | 221° |
| 2026-04-26 08:13 | 20.82897 | -20.40293 | 38030 ft | 416 kts | 221° |
| 2026-04-26 08:13 | 20.77960 | -20.43464 | 38030 ft | 416 kts | 221° |
| 2026-04-26 08:14 | 20.72987 | -20.46656 | 38028 ft | 416 kts | 222° |
| 2026-04-26 08:14 | 20.68020 | -20.49842 | 38027 ft | 416 kts | 222° |
| 2026-04-26 08:15 | 20.63045 | -20.53030 | 38029 ft | 416 kts | 222° |
| 2026-04-26 08:15 | 20.58099 | -20.56197 | 38024 ft | 416 kts | 222° |
| 2026-04-26 08:16 | 20.53128 | -20.59379 | 38026 ft | 416 kts | 222° |
| 2026-04-26 08:16 | 20.48160 | -20.62555 | 38032 ft | 416 kts | 222° |
| 2026-04-26 08:17 | 20.43182 | -20.65736 | 38038 ft | 416 kts | 222° |
| 2026-04-26 08:17 | 20.38241 | -20.68900 | 38029 ft | 414 kts | 224° |
| 2026-04-26 08:18 | 20.36107 | -20.70826 | 38022 ft | 392 kts | 238° |
| 2026-04-26 08:18 | 20.34314 | -20.73014 | 38030 ft | 394 kts | 238° |
| 2026-04-26 08:18 | 20.30724 | -20.77438 | 38031 ft | 393 kts | 239° |
| 2026-04-26 08:19 | 20.27216 | -20.81877 | 38034 ft | 393 kts | 239° |
| 2026-04-26 08:19 | 20.23706 | -20.86353 | 38032 ft | 393 kts | 239° |
| 2026-04-26 08:20 | 20.20216 | -20.90806 | 38030 ft | 394 kts | 239° |
| 2026-04-26 08:20 | 20.16696 | -20.95294 | 38030 ft | 394 kts | 239° |
| 2026-04-26 08:21 | 20.13769 | -20.99022 | 38031 ft | 394 kts | 239° |
| 2026-04-26 08:21 | 20.09667 | -21.04243 | 38035 ft | 395 kts | 239° |
| 2026-04-26 08:22 | 20.06141 | -21.08729 | 38038 ft | 395 kts | 239° |
| 2026-04-26 08:22 | 20.03200 | -21.12468 | 38037 ft | 395 kts | 239° |
| 2026-04-26 08:23 | 19.99667 | -21.16955 | 38037 ft | 395 kts | 239° |
| 2026-04-26 08:23 | 19.96128 | -21.21446 | 38037 ft | 396 kts | 239° |
| 2026-04-26 08:24 | 19.92610 | -21.25907 | 38045 ft | 396 kts | 239° |
| 2026-04-26 08:24 | 19.89067 | -21.30396 | 38036 ft | 396 kts | 239° |
| 2026-04-26 08:25 | 19.85522 | -21.34886 | 38047 ft | 396 kts | 239° |
| 2026-04-26 08:25 | 19.81971 | -21.39379 | 38044 ft | 397 kts | 239° |
| 2026-04-26 08:26 | 19.78419 | -21.43870 | 38040 ft | 397 kts | 239° |
| 2026-04-26 08:26 | 19.74886 | -21.48333 | 38039 ft | 397 kts | 238° |
| 2026-04-26 08:27 | 19.71331 | -21.52821 | 38039 ft | 398 kts | 238° |
| 2026-04-26 08:27 | 19.67764 | -21.57320 | 38040 ft | 398 kts | 238° |
| 2026-04-26 08:28 | 19.64185 | -21.61832 | 38040 ft | 398 kts | 238° |
| 2026-04-26 08:28 | 19.60632 | -21.66307 | 38041 ft | 399 kts | 238° |
| 2026-04-26 08:29 | 19.57055 | -21.70808 | 38043 ft | 399 kts | 238° |
| 2026-04-26 08:29 | 19.53467 | -21.75312 | 38040 ft | 401 kts | 237° |
| 2026-04-26 08:30 | 19.51429 | -21.77386 | 38033 ft | 413 kts | 225° |
| 2026-04-26 08:30 | 19.48897 | -21.78946 | 38062 ft | 425 kts | 218° |
| 2026-04-26 08:30 | 19.43883 | -21.82166 | 38051 ft | 422 kts | 221° |
| 2026-04-26 08:31 | 19.38899 | -21.85462 | 38040 ft | 422 kts | 222° |
| 2026-04-26 08:31 | 19.33947 | -21.88745 | 38042 ft | 422 kts | 222° |
| 2026-04-26 08:32 | 19.28967 | -21.92045 | 38039 ft | 422 kts | 222° |
| 2026-04-26 08:32 | 19.23979 | -21.95348 | 38042 ft | 422 kts | 221° |
| 2026-04-26 08:33 | 19.18987 | -21.98652 | 38044 ft | 423 kts | 221° |
| 2026-04-26 08:33 | 19.14031 | -22.01929 | 38043 ft | 423 kts | 221° |
| 2026-04-26 08:34 | 19.09034 | -22.05230 | 38040 ft | 423 kts | 221° |
| 2026-04-26 08:34 | 19.04034 | -22.08533 | 38043 ft | 423 kts | 221° |
| 2026-04-26 08:35 | 18.99031 | -22.11834 | 38047 ft | 424 kts | 221° |
| 2026-04-26 08:35 | 18.94023 | -22.15136 | 38047 ft | 424 kts | 221° |
| 2026-04-26 08:36 | 18.89049 | -22.18412 | 38041 ft | 424 kts | 221° |
| 2026-04-26 08:36 | 18.84033 | -22.21715 | 38037 ft | 424 kts | 221° |
| 2026-04-26 08:37 | 18.79015 | -22.25017 | 38045 ft | 425 kts | 221° |
| 2026-04-26 08:37 | 18.73997 | -22.28316 | 38041 ft | 425 kts | 221° |
| 2026-04-26 08:38 | 18.68972 | -22.31618 | 38039 ft | 425 kts | 221° |
| 2026-04-26 08:38 | 18.63982 | -22.34894 | 38041 ft | 425 kts | 221° |
| 2026-04-26 08:39 | 18.58952 | -22.38194 | 38043 ft | 425 kts | 221° |
| 2026-04-26 08:39 | 18.53922 | -22.41492 | 38041 ft | 426 kts | 221° |
| 2026-04-26 08:40 | 18.48891 | -22.44787 | 37955 ft | 423 kts | 221° |
| 2026-04-26 08:40 | 18.46400 | -22.46418 | 37436 ft | 419 kts | 221° |
| 2026-04-26 08:40 | 18.43928 | -22.48036 | 36870 ft | 417 kts | 221° |
| 2026-04-26 08:41 | 18.41503 | -22.49622 | 36358 ft | 414 kts | 221° |
| 2026-04-26 08:41 | 18.39067 | -22.51216 | 35874 ft | 411 kts | 221° |
| 2026-04-26 08:41 | 18.36639 | -22.52804 | 35381 ft | 408 kts | 221° |
| 2026-04-26 08:41 | 18.34229 | -22.54379 | 34893 ft | 406 kts | 221° |
| 2026-04-26 08:42 | 18.31830 | -22.55947 | 34460 ft | 403 kts | 221° |
| 2026-04-26 08:42 | 18.29463 | -22.57493 | 34115 ft | 398 kts | 221° |
| 2026-04-26 08:42 | 18.27123 | -22.59021 | 33649 ft | 395 kts | 221° |
| 2026-04-26 08:42 | 18.24785 | -22.60547 | 33146 ft | 393 kts | 221° |
| 2026-04-26 08:43 | 18.22471 | -22.62058 | 32668 ft | 391 kts | 221° |
| 2026-04-26 08:43 | 18.20185 | -22.63549 | 32215 ft | 388 kts | 221° |
| 2026-04-26 08:43 | 18.17895 | -22.65043 | 31762 ft | 386 kts | 221° |
| 2026-04-26 08:43 | 18.15617 | -22.66528 | 31316 ft | 385 kts | 221° |
| 2026-04-26 08:44 | 18.13345 | -22.68009 | 30875 ft | 383 kts | 221° |
| 2026-04-26 08:44 | 18.11081 | -22.69484 | 30437 ft | 381 kts | 221° |
| 2026-04-26 08:44 | 18.08825 | -22.70954 | 29987 ft | 380 kts | 221° |
| 2026-04-26 08:44 | 18.06601 | -22.72402 | 29501 ft | 379 kts | 220° |
| 2026-04-26 08:45 | 18.04362 | -22.73859 | 29066 ft | 376 kts | 220° |
| 2026-04-26 08:45 | 18.02149 | -22.75300 | 28661 ft | 373 kts | 220° |
| 2026-04-26 08:45 | 17.99951 | -22.76730 | 28261 ft | 370 kts | 220° |
| 2026-04-26 08:45 | 17.97767 | -22.78150 | 27864 ft | 367 kts | 220° |
| 2026-04-26 08:46 | 17.95601 | -22.79558 | 27473 ft | 365 kts | 220° |
| 2026-04-26 08:46 | 17.93481 | -22.80937 | 27095 ft | 362 kts | 220° |
| 2026-04-26 08:46 | 17.91342 | -22.82327 | 26708 ft | 360 kts | 220° |
| 2026-04-26 08:46 | 17.89219 | -22.83707 | 26339 ft | 358 kts | 220° |
| 2026-04-26 08:47 | 17.87109 | -22.85077 | 25967 ft | 356 kts | 220° |
| 2026-04-26 08:47 | 17.85003 | -22.86444 | 25597 ft | 354 kts | 220° |
| 2026-04-26 08:47 | 17.82907 | -22.87805 | 25231 ft | 352 kts | 219° |
| 2026-04-26 08:47 | 17.80820 | -22.89159 | 24873 ft | 351 kts | 219° |
| 2026-04-26 08:48 | 17.78746 | -22.90506 | 24512 ft | 349 kts | 219° |
| 2026-04-26 08:48 | 17.76679 | -22.91846 | 24155 ft | 348 kts | 219° |
| 2026-04-26 08:48 | 17.74648 | -22.93163 | 23805 ft | 347 kts | 219° |
| 2026-04-26 08:48 | 17.72601 | -22.94490 | 23418 ft | 346 kts | 219° |
| 2026-04-26 08:49 | 17.70550 | -22.95819 | 23018 ft | 344 kts | 218° |
| 2026-04-26 08:49 | 17.68516 | -22.97137 | 22654 ft | 341 kts | 218° |
| 2026-04-26 08:49 | 17.66505 | -22.98439 | 22305 ft | 338 kts | 218° |
| 2026-04-26 08:49 | 17.64509 | -22.99732 | 21973 ft | 335 kts | 218° |
| 2026-04-26 08:50 | 17.62533 | -23.01012 | 21631 ft | 332 kts | 218° |
| 2026-04-26 08:50 | 17.60578 | -23.02277 | 21298 ft | 329 kts | 218° |
| 2026-04-26 08:50 | 17.58636 | -23.03533 | 20974 ft | 327 kts | 218° |
| 2026-04-26 08:50 | 17.56706 | -23.04782 | 20639 ft | 324 kts | 218° |
| 2026-04-26 08:51 | 17.52920 | -23.07231 | 19997 ft | 319 kts | 217° |
| 2026-04-26 08:51 | 17.51032 | -23.08451 | 19678 ft | 317 kts | 217° |
| 2026-04-26 08:51 | 17.49157 | -23.09663 | 19364 ft | 314 kts | 217° |
| 2026-04-26 08:52 | 17.47299 | -23.10863 | 19042 ft | 312 kts | 217° |
| 2026-04-26 08:52 | 17.45451 | -23.12057 | 18736 ft | 310 kts | 217° |
| 2026-04-26 08:52 | 17.43645 | -23.13223 | 18429 ft | 308 kts | 216° |
| 2026-04-26 08:52 | 17.41823 | -23.14400 | 18082 ft | 307 kts | 216° |
| 2026-04-26 08:53 | 17.40016 | -23.15567 | 17751 ft | 304 kts | 216° |
| 2026-04-26 08:53 | 17.38160 | -23.16629 | 17348 ft | 308 kts | 204° |
| 2026-04-26 08:53 | 17.36025 | -23.17011 | 16935 ft | 320 kts | 183° |
| 2026-04-26 08:53 | 17.33777 | -23.16574 | 16543 ft | 339 kts | 166° |
| 2026-04-26 08:54 | 17.31479 | -23.15776 | 16155 ft | 355 kts | 166° |
| 2026-04-26 08:54 | 17.29112 | -23.14948 | 15805 ft | 363 kts | 165° |
| 2026-04-26 08:54 | 17.26711 | -23.14095 | 15457 ft | 366 kts | 165° |
| 2026-04-26 08:54 | 17.24290 | -23.13230 | 15117 ft | 365 kts | 165° |
| 2026-04-26 08:55 | 17.21918 | -23.12382 | 14765 ft | 364 kts | 165° |
| 2026-04-26 08:55 | 17.19525 | -23.11525 | 14399 ft | 362 kts | 164° |
| 2026-04-26 08:55 | 17.17146 | -23.10674 | 14048 ft | 360 kts | 164° |
| 2026-04-26 08:55 | 17.14787 | -23.09830 | 13653 ft | 359 kts | 164° |
| 2026-04-26 08:56 | 17.12424 | -23.08986 | 13268 ft | 356 kts | 164° |
| 2026-04-26 08:56 | 17.10876 | -23.08432 | 13016 ft | 353 kts | 165° |
| 2026-04-26 08:56 | 17.07807 | -23.07335 | 12551 ft | 344 kts | 165° |
| 2026-04-26 08:56 | 17.05558 | -23.06532 | 12216 ft | 339 kts | 165° |
| 2026-04-26 08:57 | 17.03341 | -23.05755 | 11859 ft | 333 kts | 169° |
| 2026-04-26 08:57 | 17.01081 | -23.05520 | 11480 ft | 325 kts | 185° |
| 2026-04-26 08:57 | 16.98850 | -23.05511 | 11167 ft | 323 kts | 184° |
| 2026-04-26 08:57 | 16.96608 | -23.05492 | 10852 ft | 321 kts | 184° |
| 2026-04-26 08:58 | 16.94373 | -23.05474 | 10515 ft | 320 kts | 184° |
| 2026-04-26 08:58 | 16.92152 | -23.05457 | 10256 ft | 316 kts | 185° |
| 2026-04-26 08:58 | 16.89964 | -23.05441 | 10066 ft | 314 kts | 185° |
| 2026-04-26 08:58 | 16.87785 | -23.05424 | 9726 ft | 314 kts | 185° |
| 2026-04-26 08:59 | 16.85595 | -23.05407 | 9362 ft | 313 kts | 184° |
| 2026-04-26 08:59 | 16.83455 | -23.05391 | 9061 ft | 311 kts | 184° |
| 2026-04-26 08:59 | 16.81305 | -23.05375 | 8766 ft | 308 kts | 184° |
| 2026-04-26 08:59 | 16.79167 | -23.05359 | 8488 ft | 307 kts | 184° |
| 2026-04-26 09:00 | 16.77027 | -23.05343 | 8189 ft | 308 kts | 184° |
| 2026-04-26 09:00 | 16.74859 | -23.05327 | 7648 ft | 315 kts | 184° |
| 2026-04-26 09:00 | 16.72643 | -23.05310 | 7120 ft | 319 kts | 184° |
| 2026-04-26 09:00 | 16.70454 | -23.05293 | 6590 ft | 315 kts | 184° |
| 2026-04-26 09:01 | 16.68279 | -23.05276 | 6057 ft | 309 kts | 183° |
| 2026-04-26 09:01 | 16.66150 | -23.05261 | 5522 ft | 304 kts | 182° |
| 2026-04-26 09:01 | 16.64042 | -23.05245 | 4975 ft | 300 kts | 182° |
| 2026-04-26 09:01 | 16.61962 | -23.05229 | 4418 ft | 298 kts | 181° |
| 2026-04-26 09:02 | 16.59885 | -23.05216 | 3829 ft | 297 kts | 180° |
| 2026-04-26 09:02 | 16.57828 | -23.05189 | 3283 ft | 294 kts | 175° |
| 2026-04-26 09:02 | 16.55964 | -23.04597 | 2881 ft | 278 kts | 142° |
| 2026-04-26 09:02 | 16.54765 | -23.03145 | 2613 ft | 255 kts | 110° |
| 2026-04-26 09:03 | 16.54360 | -23.01420 | 2414 ft | 238 kts | 94° |
| 2026-04-26 09:03 | 16.54151 | -22.99734 | 2258 ft | 232 kts | 92° |
| 2026-04-26 09:03 | 16.53962 | -22.98092 | 2102 ft | 226 kts | 92° |
| 2026-04-26 09:03 | 16.53971 | -22.96485 | 1976 ft | 216 kts | 68° |
| 2026-04-26 09:04 | 16.54814 | -22.95280 | 1930 ft | 202 kts | 32° |
| 2026-04-26 09:04 | 16.56123 | -22.94842 | 1859 ft | 199 kts | 4° |
| 2026-04-26 09:04 | 16.57502 | -22.94825 | 1775 ft | 200 kts | 2° |
| 2026-04-26 09:04 | 16.58845 | -22.94820 | 1666 ft | 186 kts | 2° |
| 2026-04-26 09:05 | 16.60092 | -22.94820 | 1534 ft | 173 kts | 2° |
| 2026-04-26 09:05 | 16.61265 | -22.94821 | 1500 ft | 166 kts | 2° |
| 2026-04-26 09:05 | 16.62416 | -22.94812 | 1527 ft | 162 kts | 2° |
| 2026-04-26 09:05 | 16.63495 | -22.94816 | 1543 ft | 151 kts | 2° |
| 2026-04-26 09:06 | 16.64527 | -22.94824 | 1507 ft | 142 kts | 2° |
| 2026-04-26 09:06 | 16.65495 | -22.94830 | 1457 ft | 139 kts | 2° |
| 2026-04-26 09:06 | 16.66456 | -22.94839 | 1314 ft | 136 kts | 4° |
| 2026-04-26 09:06 | 16.67404 | -22.94845 | 1152 ft | 136 kts | 4° |
| 2026-04-26 09:07 | 16.68349 | -22.94852 | 985 ft | 136 kts | 2° |
| 2026-04-26 09:07 | 16.69308 | -22.94855 | 796 ft | 140 kts | 2° |
| 2026-04-26 09:07 | 16.70299 | -22.94865 | 635 ft | 143 kts | 4° |
| 2026-04-26 09:07 | 16.71249 | -22.94882 | 427 ft | 134 kts | 4° |
| 2026-04-26 09:08 | 16.72165 | -22.94887 | 242 ft | 131 kts | 2° |
| 2026-04-26 09:08 | 16.73007 | -22.94889 | 192 ft | 100 kts | 0° |
| 2026-04-26 09:08 | 16.73583 | -22.94895 | 187 ft | 73 kts | 0° |
| 2026-04-26 09:08 | 16.73894 | -22.94908 | 194 ft | 63 kts | 360° |
| 2026-04-26 09:09 | 16.74322 | -22.94900 | 187 ft | 55 kts | 359° |
| 2026-04-26 09:09 | 16.74669 | -22.94900 | 188 ft | 47 kts | 0° |
| 2026-04-26 09:09 | 16.74920 | -22.94904 | 188 ft | 29 kts | 358° |
| 2026-04-26 09:09 | 16.75043 | -22.94903 | 190 ft | 13 kts | 18° |
| 2026-04-26 09:10 | 16.75057 | -22.94853 | 188 ft | 7 kts | 121° |
| 2026-04-26 09:10 | 16.75015 | -22.94779 | 191 ft | 17 kts | 121° |
| 2026-04-26 09:10 | 16.74904 | -22.94704 | 187 ft | 22 kts | 181° |
| 2026-04-26 09:10 | 16.74738 | -22.94703 | 183 ft | 25 kts | 179° |
| 2026-04-26 09:11 | 16.74558 | -22.94702 | 184 ft | 27 kts | 179° |
| 2026-04-26 09:11 | 16.74372 | -22.94701 | 187 ft | 26 kts | 180° |
| 2026-04-26 09:11 | 16.74181 | -22.94700 | 188 ft | 28 kts | 179° |
| 2026-04-26 09:11 | 16.74041 | -22.94698 | 185 ft | 17 kts | 180° |
| 2026-04-26 09:12 | 16.73912 | -22.94698 | 184 ft | 21 kts | 180° |
| 2026-04-26 09:12 | 16.73749 | -22.94697 | 187 ft | 25 kts | 180° |
| 2026-04-26 09:12 | 16.73628 | -22.94671 | 189 ft | 14 kts | 119° |
| 2026-04-26 09:12 | 16.73561 | -22.94597 | 188 ft | 15 kts | 179° |
| 2026-04-26 09:13 | 16.73451 | -22.94598 | 193 ft | 17 kts | 180° |
| 2026-04-26 09:13 | 16.73323 | -22.94597 | 187 ft | 20 kts | 179° |
| 2026-04-26 09:13 | 16.73197 | -22.94595 | 183 ft | 7 kts | 179° |
| 2026-04-26 09:13 | 16.73176 | -22.94588 | 187 ft | 4 kts | 137° |
| 2026-04-26 09:14 | 16.73169 | -22.94557 | 187 ft | 5 kts | 91° |
| 2026-04-26 09:14 | 16.73169 | -22.94511 | 187 ft | 4 kts | 90° |
| 2026-04-26 09:14 | 16.73169 | -22.94495 | 187 ft | 0 kts | 90° |